createdAt,value
2022-09-24T05:34:04.302Z,93848.00
2022-09-24T06:19:43.853Z,93859.00
2022-09-24T06:23:52.907Z,93850.00
2022-09-24T06:32:24.810Z,93857.00
2022-09-24T06:36:38.772Z,93861.00
2022-09-24T06:49:34.264Z,93844.00
2022-09-24T06:58:48.757Z,93842.00
2022-09-24T07:59:51.871Z,93879.00
2022-09-24T08:44:22.184Z,93916.00
2022-09-24T09:03:06.978Z,93904.00
2022-09-24T09:07:24.214Z,93908.00
2022-09-24T09:25:38.779Z,93909.00
2022-09-24T09:29:50.046Z,93894.00
2022-09-24T10:45:27.182Z,93893.00
2022-09-24T10:54:42.677Z,93885.00
2022-09-24T11:03:56.974Z,93891.00
2022-09-24T11:08:25.423Z,93883.00
2022-09-24T11:12:53.832Z,93887.00
2022-09-24T11:17:21.394Z,93882.00
2022-09-24T11:21:53.872Z,93873.00
2022-09-24T11:31:00.198Z,93890.00
2022-09-24T11:35:37.740Z,93883.00
2022-09-24T11:40:18.819Z,93884.00
2022-09-24T11:44:56.989Z,93875.00
2022-09-24T11:49:27.320Z,93877.00
2022-09-24T12:08:40.655Z,93863.00
2022-09-24T13:14:14.560Z,93880.00
2022-09-24T13:22:59.268Z,93872.00
2022-09-24T13:27:25.997Z,93864.00
2022-09-24T13:31:36.477Z,93868.00
2022-09-24T13:36:14.366Z,93864.00
2022-09-24T13:40:23.235Z,93865.00
2022-09-24T13:44:35.179Z,93860.00
2022-09-24T13:48:52.223Z,93840.00
2022-09-24T14:01:48.084Z,93854.00
2022-09-24T14:06:00.673Z,93845.00
2022-09-24T14:10:15.908Z,93841.00
2022-09-24T14:14:30.032Z,93848.00
2022-09-24T14:18:34.079Z,93839.00
2022-09-24T14:22:42.175Z,93849.00
2022-09-24T14:26:52.883Z,93856.00
2022-09-24T14:30:56.633Z,93847.00
2022-09-24T14:35:06.666Z,93852.00
2022-09-24T14:39:11.950Z,93854.00
2022-09-24T14:43:24.690Z,93870.00
2022-09-24T14:47:37.424Z,93860.00
2022-09-24T14:51:52.037Z,93856.00
2022-09-24T14:55:56.914Z,93859.00
2022-09-24T14:59:59.184Z,93850.00
2022-09-24T15:04:05.979Z,93857.00
2022-09-24T15:08:27.178Z,93870.00
2022-09-24T15:12:36.374Z,93853.00
2022-09-24T15:16:39.121Z,93866.00
2022-09-24T15:20:41.590Z,93867.00
2022-09-24T15:24:43.780Z,93863.00
2022-09-24T15:28:51.228Z,93864.00
2022-09-24T15:32:54.549Z,93841.00
2022-09-24T15:37:01.998Z,93851.00
2022-09-24T15:41:09.926Z,93859.00
2022-09-24T15:45:21.949Z,93868.00
2022-09-24T15:49:26.298Z,93858.00
2022-09-24T15:53:32.408Z,93851.00
2022-09-24T15:57:35.452Z,93863.00
2022-09-24T16:01:38.214Z,93837.00
2022-09-24T16:05:43.992Z,93835.00
2022-09-24T16:09:46.598Z,93850.00
2022-09-24T16:13:50.882Z,93831.00
2022-09-24T16:17:54.973Z,93850.00
2022-09-24T16:21:58.034Z,93838.00
2022-09-24T16:26:01.030Z,93840.00
2022-09-24T16:30:05.058Z,93843.00
2022-09-24T16:34:08.870Z,93846.00
2022-09-24T16:38:17.640Z,93846.00
2022-09-24T16:42:26.491Z,93853.00
2022-09-24T16:46:29.944Z,93842.00
2022-09-24T16:50:37.171Z,93844.00
2022-09-24T16:54:41.896Z,93835.00
2022-09-24T16:58:47.945Z,93844.00
2022-09-24T17:02:50.991Z,93845.00
2022-09-24T17:06:57.635Z,93837.00
2022-09-24T17:11:10.139Z,93860.00
2022-09-24T17:16:16.079Z,93844.00
2022-09-24T17:20:43.932Z,93863.00
2022-09-24T17:24:56.984Z,93859.00
2022-09-24T17:28:59.483Z,93853.00
2022-09-24T17:33:19.560Z,93860.00
2022-09-24T17:37:32.535Z,93855.00
2022-09-24T17:41:42.061Z,93860.00
2022-09-24T17:46:43.494Z,93873.00
2022-09-24T17:50:54.600Z,93864.00
2022-09-24T17:54:56.512Z,93862.00
2022-09-24T17:59:26.660Z,93860.00
2022-09-24T18:03:30.101Z,93867.00
2022-09-24T18:07:32.041Z,93865.00
2022-09-24T18:11:42.082Z,93871.00
2022-09-24T18:15:44.408Z,93868.00
2022-09-24T18:19:46.557Z,93870.00
2022-09-24T18:24:57.818Z,93865.00
2022-09-24T18:29:01.601Z,93862.00
2022-09-24T18:33:03.627Z,93864.00
2022-09-24T18:37:31.235Z,93872.00
2022-09-24T18:41:33.958Z,93864.00
2022-09-24T18:45:36.216Z,93869.00
2022-09-24T18:49:38.242Z,93869.00
2022-09-24T18:53:40.263Z,93871.00
2022-09-24T18:57:42.405Z,93861.00
2022-09-24T19:01:45.937Z,93861.00
2022-09-24T19:05:52.094Z,93857.00
2022-09-24T19:09:54.182Z,93867.00
2022-09-24T19:13:56.316Z,93856.00
2022-09-24T19:17:58.549Z,93862.00
2022-09-24T19:22:00.432Z,93858.00
2022-09-24T19:26:37.723Z,93859.00
2022-09-24T19:30:52.020Z,93859.00
2022-09-24T19:34:54.249Z,93849.00
2022-09-24T19:39:01.806Z,93863.00
2022-09-24T19:43:05.486Z,93859.00
2022-09-24T19:47:35.384Z,93861.00
2022-09-24T19:51:43.524Z,93849.00
2022-09-24T19:55:45.769Z,93857.00
2022-09-24T19:59:47.710Z,93853.00
2022-09-24T20:03:51.128Z,93854.00
2022-09-24T20:08:04.663Z,93856.00
2022-09-24T20:12:06.806Z,93862.00
2022-09-24T20:16:26.522Z,93850.00
2022-09-24T20:21:24.189Z,93854.00
2022-09-24T20:25:46.232Z,93856.00
2022-09-24T20:29:54.615Z,93858.00
2022-09-24T20:34:09.501Z,93847.00
2022-09-24T20:38:14.916Z,93853.00
2022-09-24T20:42:16.930Z,93850.00
2022-09-24T20:46:25.748Z,93858.00
2022-09-24T20:50:53.169Z,93856.00
2022-09-24T20:54:55.377Z,93855.00
2022-09-24T20:58:58.629Z,93857.00
2022-09-24T21:03:20.063Z,93866.00
2022-09-24T21:08:29.386Z,93870.00
2022-09-24T21:13:00.365Z,93860.00
2022-09-24T21:17:28.254Z,93856.00
2022-09-24T21:22:01.793Z,93862.00
2022-09-24T21:26:19.818Z,93860.00
2022-09-24T21:30:26.271Z,93868.00
2022-09-24T21:34:28.376Z,93867.00
2022-09-24T21:38:30.457Z,93860.00
2022-09-24T21:42:32.612Z,93858.00
2022-09-24T21:46:35.068Z,93852.00
2022-09-24T21:50:40.279Z,93859.00
2022-09-24T21:54:42.859Z,93850.00
2022-09-24T21:58:52.928Z,93855.00
2022-09-24T22:02:55.575Z,93856.00
2022-09-24T22:07:04.038Z,93853.00
2022-09-24T22:11:09.357Z,93851.00
2022-09-24T22:15:11.350Z,93859.00
2022-09-24T22:19:43.555Z,93856.00
2022-09-24T22:24:00.078Z,93856.00
2022-09-24T22:28:02.777Z,93849.00
2022-09-24T22:32:05.565Z,93855.00
2022-09-24T22:36:08.581Z,93860.00
2022-09-24T22:40:11.242Z,93865.00
2022-09-24T22:44:13.663Z,93861.00
2022-09-24T22:48:15.635Z,93858.00
2022-09-24T22:52:17.689Z,93855.00
2022-09-24T22:56:37.257Z,93860.00
2022-09-24T23:01:10.826Z,93862.00
2022-09-24T23:05:14.469Z,93855.00
2022-09-24T23:09:43.129Z,93854.00
2022-09-24T23:13:56.884Z,93845.00
2022-09-24T23:18:00.044Z,93847.00
2022-09-24T23:22:02.207Z,93841.00
2022-09-24T23:26:21.155Z,93845.00
2022-09-24T23:31:13.211Z,93851.00
2022-09-24T23:35:15.757Z,93854.00
2022-09-24T23:39:18.110Z,93857.00
2022-09-24T23:43:22.643Z,93862.00
2022-09-24T23:47:50.342Z,93858.00
2022-09-24T23:52:00.693Z,93849.00
2022-09-24T23:56:06.533Z,93850.00
